Time;durP1;ratioP1;P1;durP2;ratioP2;P2;SDS_P1;SDS_P2;PMS_P1;PMS_P2;Temp;Humidity;BMP_temperature;BMP_pressure;BME280_temperature;BME280_humidity;BME280_pressure;Samples;Min_cycle;Max_cycle;Signal;HPM_P1;HPM_P2
2023/10/23 00:00:33;;;;;;;6.90;5.03;;;12.10;99.90;;;;;;5035852;28;20519;-58
2023/10/23 00:03:02;;;;;;;5.83;4.70;;;12.10;99.90;;;;;;5035444;28;20459;-57
2023/10/23 00:05:29;;;;;;;6.43;4.90;;;12.20;99.90;;;;;;5035858;28;20906;-58
2023/10/23 00:07:57;;;;;;;5.50;4.70;;;12.10;99.90;;;;;;5035253;28;20488;-58
2023/10/23 00:10:24;;;;;;;5.40;4.90;;;12.10;99.90;;;;;;5035171;28;20459;-57
2023/10/23 00:12:51;;;;;;;6.30;4.50;;;12.10;99.90;;;;;;5035373;28;20455;-57
2023/10/23 00:15:18;;;;;;;5.90;4.70;;;12.10;99.90;;;;;;5035859;28;20543;-58
2023/10/23 00:17:45;;;;;;;5.17;4.67;;;12.10;99.90;;;;;;5035303;28;20939;-58
2023/10/23 00:20:15;;;;;;;5.90;4.27;;;12.10;99.90;;;;;;5033999;28;20462;-58
2023/10/23 00:22:42;;;;;;;6.30;4.37;;;12.10;99.90;;;;;;5035415;28;20516;-58
2023/10/23 00:25:09;;;;;;;5.07;4.00;;;12.10;99.90;;;;;;5035533;28;20546;-57
2023/10/23 00:27:37;;;;;;;5.33;4.10;;;12.10;99.90;;;;;;5034976;28;20461;-57
2023/10/23 00:30:05;;;;;;;6.90;5.20;;;12.10;99.90;;;;;;5035013;28;20465;-57
2023/10/23 00:32:32;;;;;;;5.03;4.53;;;12.00;99.90;;;;;;5034914;28;20455;-58
2023/10/23 00:34:59;;;;;;;5.37;4.20;;;12.10;99.90;;;;;;5035450;28;20463;-58
2023/10/23 00:37:28;;;;;;;5.70;4.27;;;12.10;99.90;;;;;;5035194;28;20463;-57
2023/10/23 00:39:55;;;;;;;7.57;4.70;;;12.00;99.90;;;;;;5034932;28;20501;-57
2023/10/23 00:42:22;;;;;;;5.03;4.33;;;12.10;99.90;;;;;;5034748;28;20887;-58
2023/10/23 00:44:49;;;;;;;6.63;4.47;;;12.00;99.90;;;;;;5035008;28;20528;-57
2023/10/23 00:47:18;;;;;;;6.23;4.33;;;12.00;99.90;;;;;;5034386;28;20460;-58
2023/10/23 00:49:45;;;;;;;5.40;3.97;;;12.00;99.90;;;;;;5035051;28;20582;-58
2023/10/23 00:52:13;;;;;;;5.83;4.30;;;12.00;99.90;;;;;;5034400;28;20880;-58
2023/10/23 00:54:41;;;;;;;5.27;3.90;;;12.00;99.90;;;;;;5034118;28;20440;-58
2023/10/23 00:57:09;;;;;;;5.00;3.80;;;12.00;99.90;;;;;;5034655;28;20764;-58
2023/10/23 00:59:36;;;;;;;6.70;4.13;;;12.10;99.90;;;;;;5034909;28;20545;-58
2023/10/23 01:02:04;;;;;;;4.70;3.70;;;12.00;99.90;;;;;;5034425;28;20459;-58
2023/10/23 01:04:31;;;;;;;7.60;4.00;;;12.00;99.90;;;;;;5034478;28;20490;-58
2023/10/23 01:06:58;;;;;;;6.17;4.00;;;11.90;99.90;;;;;;5033882;28;20486;-58
2023/10/23 01:09:26;;;;;;;6.23;4.23;;;12.00;99.90;;;;;;5034319;28;20914;-58
2023/10/23 01:11:54;;;;;;;5.77;4.97;;;12.00;99.90;;;;;;5034388;28;20570;-58
2023/10/23 01:14:21;;;;;;;7.00;4.03;;;11.90;99.90;;;;;;5034934;28;20459;-58
2023/10/23 01:16:48;;;;;;;6.37;4.30;;;11.90;99.90;;;;;;5033793;28;20465;-57
2023/10/23 01:19:16;;;;;;;6.63;4.30;;;11.90;99.90;;;;;;5034417;28;20481;-57
2023/10/23 01:21:43;;;;;;;10.07;5.50;;;11.90;99.90;;;;;;5034575;28;20459;-57
2023/10/23 01:24:12;;;;;;;4.90;4.17;;;11.90;99.90;;;;;;5034309;28;20463;-58
2023/10/23 01:26:41;;;;;;;6.10;4.00;;;11.90;99.90;;;;;;5034182;28;20923;-58
2023/10/23 01:29:08;;;;;;;5.50;3.87;;;11.90;99.90;;;;;;5034512;28;20465;-58
2023/10/23 01:31:35;;;;;;;7.33;4.00;;;11.90;99.90;;;;;;5034536;28;20825;-57
2023/10/23 01:34:02;;;;;;;5.33;3.33;;;11.90;99.90;;;;;;5034084;28;20466;-58
2023/10/23 01:36:29;;;;;;;4.67;3.90;;;11.90;99.90;;;;;;5034679;28;20477;-57
2023/10/23 01:38:57;;;;;;;5.30;4.10;;;11.80;99.90;;;;;;5033953;28;20455;-58
2023/10/23 01:41:24;;;;;;;4.10;3.50;;;11.70;99.90;;;;;;5034106;28;20462;-57
2023/10/23 01:43:53;;;;;;;6.37;3.70;;;11.70;99.90;;;;;;5033977;28;20477;-57
2023/10/23 01:46:21;;;;;;;7.37;4.23;;;11.60;99.90;;;;;;5034051;28;20875;-59
2023/10/23 01:48:48;;;;;;;4.60;3.63;;;11.50;99.90;;;;;;5033902;28;20462;-58
2023/10/23 01:51:15;;;;;;;4.90;4.37;;;11.50;99.90;;;;;;5033397;28;20455;-58
2023/10/23 01:53:42;;;;;;;5.00;3.77;;;11.40;99.90;;;;;;5033627;28;20458;-59
2023/10/23 01:56:09;;;;;;;4.50;3.17;;;11.30;99.90;;;;;;5033793;28;20890;-58
2023/10/23 01:58:37;;;;;;;7.37;4.77;;;11.20;99.90;;;;;;5033736;28;20754;-56
2023/10/23 02:01:05;;;;;;;4.40;3.90;;;11.10;99.90;;;;;;5033152;28;20470;-59
2023/10/23 02:03:32;;;;;;;5.23;3.70;;;11.00;99.90;;;;;;5033101;28;20460;-58
2023/10/23 02:05:59;;;;;;;5.60;3.90;;;10.90;99.90;;;;;;5033479;28;20459;-57
2023/10/23 02:08:27;;;;;;;5.97;4.50;;;10.80;99.90;;;;;;5033257;28;20510;-58
2023/10/23 02:10:54;;;;;;;5.83;3.80;;;10.70;99.90;;;;;;5033719;28;20482;-58
2023/10/23 02:13:21;;;;;;;7.97;4.73;;;10.70;99.90;;;;;;5033462;28;20459;-58
2023/10/23 02:15:48;;;;;;;7.10;4.47;;;10.60;99.90;;;;;;5032926;28;20851;-57
2023/10/23 02:18:17;;;;;;;7.93;4.57;;;10.60;99.90;;;;;;5033536;28;20467;-57
2023/10/23 02:20:44;;;;;;;8.53;4.50;;;10.50;99.90;;;;;;5037335;28;20876;-58
2023/10/23 02:23:11;;;;;;;5.47;4.10;;;10.50;99.90;;;;;;5037211;28;20451;-58
2023/10/23 02:25:38;;;;;;;7.03;4.30;;;10.50;99.90;;;;;;5036459;28;20459;-57
2023/10/23 02:28:05;;;;;;;4.40;4.00;;;10.60;99.90;;;;;;5036578;28;20459;-58
2023/10/23 02:30:32;;;;;;;10.17;4.80;;;10.60;99.90;;;;;;5036571;28;20459;-58
2023/10/23 02:32:59;;;;;;;6.40;5.03;;;10.50;99.90;;;;;;5037142;28;20459;-58
2023/10/23 02:35:29;;;;;;;5.90;4.40;;;10.50;99.90;;;;;;5037215;28;20714;-57
2023/10/23 02:37:56;;;;;;;9.53;5.17;;;10.50;99.90;;;;;;5036528;28;20460;-57
2023/10/23 02:40:23;;;;;;;6.47;4.63;;;10.50;99.90;;;;;;5036710;28;20461;-58
2023/10/23 02:42:50;;;;;;;7.97;4.80;;;10.40;99.90;;;;;;5036955;28;20466;-58
2023/10/23 02:45:17;;;;;;;6.97;4.80;;;10.40;99.90;;;;;;5036714;28;20463;-58
2023/10/23 02:47:45;;;;;;;5.93;4.60;;;10.40;99.90;;;;;;5037098;28;20463;-56
2023/10/23 02:50:12;;;;;;;6.93;4.70;;;10.30;99.90;;;;;;5036190;28;20499;-54
2023/10/23 02:52:41;;;;;;;9.67;5.50;;;10.10;99.90;;;;;;5036894;28;20892;-57
2023/10/23 02:55:08;;;;;;;6.10;4.87;;;10.10;99.90;;;;;;5036458;28;20465;-58
2023/10/23 02:57:36;;;;;;;14.47;5.33;;;10.20;99.90;;;;;;5036523;28;20519;-57
2023/10/23 03:00:05;;;;;;;5.50;4.50;;;10.10;99.90;;;;;;5035770;28;20470;-57
2023/10/23 03:02:33;;;;;;;6.60;5.50;;;10.10;99.90;;;;;;5035704;28;20463;-57
2023/10/23 03:05:00;;;;;;;9.73;5.70;;;10.00;99.90;;;;;;5035963;28;20738;-57
2023/10/23 03:07:27;;;;;;;7.90;5.97;;;10.10;99.90;;;;;;5035295;28;20487;-56
2023/10/23 03:09:56;;;;;;;6.90;5.00;;;10.00;99.90;;;;;;5035774;28;20492;-58
2023/10/23 03:12:23;;;;;;;8.03;5.73;;;10.00;99.90;;;;;;5035832;28;20456;-57
2023/10/23 03:14:50;;;;;;;9.60;6.60;;;10.00;99.90;;;;;;5035594;28;20545;-57
2023/10/23 03:17:18;;;;;;;9.13;6.13;;;10.00;99.90;;;;;;5036612;28;20474;-58
2023/10/23 03:19:45;;;;;;;7.93;5.83;;;10.00;99.90;;;;;;5034205;28;20575;-56
2023/10/23 03:22:12;;;;;;;8.87;6.43;;;9.90;99.90;;;;;;5034391;28;20553;-55
2023/10/23 03:24:41;;;;;;;7.10;6.10;;;9.80;99.90;;;;;;5033976;28;20470;-55
2023/10/23 03:27:10;;;;;;;8.70;7.17;;;9.70;99.90;;;;;;5034477;28;20467;-58
2023/10/23 03:29:37;;;;;;;8.63;7.70;;;9.60;99.90;;;;;;5034506;28;20488;-56
2023/10/23 03:32:04;;;;;;;13.43;8.30;;;9.70;99.90;;;;;;5033172;28;20502;-57
2023/10/23 03:34:31;;;;;;;11.97;8.10;;;9.70;99.90;;;;;;5035414;28;20465;-56
2023/10/23 03:36:58;;;;;;;13.40;8.70;;;9.70;99.90;;;;;;5035889;28;20918;-56
2023/10/23 03:39:25;;;;;;;12.33;10.63;;;9.70;99.90;;;;;;5036308;28;20430;-57
2023/10/23 03:41:53;;;;;;;14.13;11.23;;;9.80;99.90;;;;;;5036041;28;20463;-56
2023/10/23 03:44:21;;;;;;;12.00;10.30;;;9.80;99.90;;;;;;5035778;28;20462;-57
2023/10/23 03:46:48;;;;;;;15.53;11.93;;;9.80;99.90;;;;;;5035518;28;20441;-55
2023/10/23 03:49:16;;;;;;;12.80;11.20;;;9.80;99.90;;;;;;5035966;28;20767;-58
2023/10/23 03:51:43;;;;;;;12.13;10.83;;;9.80;99.90;;;;;;5035611;28;20459;-57
2023/10/23 03:54:11;;;;;;;14.13;11.17;;;9.80;99.90;;;;;;5035995;28;20460;-57
2023/10/23 03:56:38;;;;;;;12.30;10.20;;;9.80;99.90;;;;;;5035416;28;20492;-57
2023/10/23 03:59:05;;;;;;;12.77;10.43;;;9.80;99.90;;;;;;5035580;28;20431;-57
2023/10/23 04:01:34;;;;;;;12.07;9.53;;;9.70;99.90;;;;;;5035496;28;20766;-57
2023/10/23 04:04:01;;;;;;;13.43;10.80;;;9.60;99.90;;;;;;5035498;28;20590;-57
2023/10/23 04:06:28;;;;;;;10.63;9.53;;;9.50;99.90;;;;;;5035243;28;20461;-58
2023/10/23 04:08:55;;;;;;;14.57;10.27;;;9.40;99.90;;;;;;5035027;28;20503;-58
2023/10/23 04:11:23;;;;;;;11.03;9.93;;;9.30;99.90;;;;;;5035077;28;20772;-59
2023/10/23 04:13:50;;;;;;;10.43;9.33;;;9.20;99.90;;;;;;5035100;28;20900;-58
2023/10/23 04:16:18;;;;;;;12.13;9.27;;;9.10;99.90;;;;;;5035053;28;20750;-57
2023/10/23 04:18:46;;;;;;;10.97;9.87;;;9.10;99.90;;;;;;5035067;28;20547;-57
2023/10/23 04:21:14;;;;;;;11.27;9.83;;;9.10;99.90;;;;;;5035146;28;20459;-57
2023/10/23 04:23:42;;;;;;;11.13;9.73;;;9.10;99.90;;;;;;5034936;28;20462;-58
2023/10/23 04:26:09;;;;;;;10.80;9.70;;;9.10;99.90;;;;;;5035169;28;20469;-57
2023/10/23 04:28:37;;;;;;;10.47;9.37;;;9.00;99.90;;;;;;5030056;28;20938;-57
2023/10/23 04:31:04;;;;;;;11.67;9.77;;;9.00;99.90;;;;;;5034282;28;20494;-56
2023/10/23 04:33:32;;;;;;;11.03;9.83;;;9.00;99.90;;;;;;5035159;28;20459;-58
2023/10/23 04:36:01;;;;;;;11.70;10.40;;;8.90;99.90;;;;;;5034327;28;20491;-57
2023/10/23 04:38:28;;;;;;;10.30;8.87;;;8.90;99.90;;;;;;5034887;28;20459;-58
2023/10/23 04:40:55;;;;;;;11.73;9.73;;;8.90;99.90;;;;;;5034692;28;20479;-58
2023/10/23 04:43:22;;;;;;;11.43;9.83;;;8.70;99.90;;;;;;5034631;28;20631;-57
2023/10/23 04:45:52;;;;;;;11.70;10.50;;;8.70;99.90;;;;;;5034559;28;20467;-57
2023/10/23 04:48:20;;;;;;;11.60;10.40;;;8.60;99.90;;;;;;5034296;28;20471;-57
2023/10/23 04:50:47;;;;;;;11.87;9.17;;;8.60;99.90;;;;;;5034472;28;20507;-57
2023/10/23 04:53:15;;;;;;;12.57;10.70;;;8.70;99.90;;;;;;5034779;28;20861;-58
2023/10/23 04:55:43;;;;;;;12.90;10.90;;;8.60;99.90;;;;;;5034133;28;20456;-58
2023/10/23 04:58:10;;;;;;;11.17;9.97;;;8.80;99.90;;;;;;5034657;28;20460;-57
2023/10/23 05:00:39;;;;;;;11.93;10.63;;;8.80;99.90;;;;;;5033338;28;20507;-58
2023/10/23 05:03:07;;;;;;;12.90;11.23;;;8.70;99.90;;;;;;5034509;28;20481;-57
2023/10/23 05:05:35;;;;;;;12.07;10.73;;;8.70;99.90;;;;;;5034541;28;20499;-58
2023/10/23 05:08:03;;;;;;;16.50;10.47;;;8.70;99.90;;;;;;5034020;28;20526;-57
2023/10/23 05:10:32;;;;;;;12.47;9.20;;;8.70;99.90;;;;;;5033848;28;20585;-57
2023/10/23 05:13:02;;;;;;;10.83;9.73;;;8.60;99.90;;;;;;5033459;28;20429;-57
2023/10/23 05:15:31;;;;;;;11.13;9.63;;;8.60;99.90;;;;;;5031842;28;20455;-58
2023/10/23 05:17:58;;;;;;;9.33;8.37;;;8.50;99.90;;;;;;5033762;28;20467;-58
2023/10/23 05:20:25;;;;;;;11.47;8.80;;;8.50;99.90;;;;;;5032192;28;20451;-58
2023/10/23 05:22:53;;;;;;;10.50;9.30;;;8.60;99.90;;;;;;5033557;28;20459;-58
2023/10/23 05:25:20;;;;;;;9.83;8.83;;;8.70;99.90;;;;;;5034539;28;20464;-58
2023/10/23 05:27:48;;;;;;;10.13;8.40;;;8.70;99.90;;;;;;5033682;28;20473;-57
2023/10/23 05:30:15;;;;;;;11.07;8.47;;;8.80;99.90;;;;;;5034265;28;20789;-58
2023/10/23 05:32:43;;;;;;;9.93;8.00;;;8.80;99.90;;;;;;5032890;28;20441;-58
2023/10/23 05:35:11;;;;;;;11.60;9.23;;;8.80;99.90;;;;;;5030210;28;20471;-59
2023/10/23 05:37:38;;;;;;;10.00;8.67;;;8.80;99.90;;;;;;5033929;28;20459;-57
2023/10/23 05:40:07;;;;;;;10.07;8.40;;;8.80;99.90;;;;;;5033504;28;20454;-58
2023/10/23 05:42:34;;;;;;;10.90;8.67;;;8.80;99.90;;;;;;5033547;28;20460;-58
2023/10/23 05:45:03;;;;;;;10.67;9.33;;;8.70;99.90;;;;;;5033770;28;20448;-58
2023/10/23 05:47:30;;;;;;;11.67;9.63;;;8.70;99.90;;;;;;5034048;28;20516;-61
2023/10/23 05:49:58;;;;;;;10.37;8.97;;;8.70;99.90;;;;;;5033452;28;20517;-60
2023/10/23 05:52:25;;;;;;;9.53;8.53;;;8.70;99.90;;;;;;5032174;28;20463;-60
2023/10/23 05:54:52;;;;;;;9.43;8.00;;;8.60;99.90;;;;;;5035919;28;20459;-60
2023/10/23 05:57:19;;;;;;;9.27;8.37;;;8.60;99.90;;;;;;5036832;28;20558;-60
2023/10/23 05:59:46;;;;;;;11.00;8.37;;;8.60;99.90;;;;;;5036894;28;20458;-60
2023/10/23 06:02:15;;;;;;;9.27;8.27;;;8.60;99.90;;;;;;5035705;28;20469;-61
2023/10/23 06:04:44;;;;;;;11.07;8.23;;;8.60;99.90;;;;;;5037160;28;20437;-60
2023/10/23 06:07:11;;;;;;;11.50;8.53;;;8.60;99.90;;;;;;5036877;28;20495;-61
2023/10/23 06:09:39;;;;;;;9.37;8.30;;;8.60;99.90;;;;;;5037496;28;20494;-62
2023/10/23 06:12:07;;;;;;;12.60;8.57;;;8.60;99.90;;;;;;5035506;28;20469;-61
2023/10/23 06:14:34;;;;;;;13.63;8.20;;;8.50;99.90;;;;;;5036464;28;20542;-61
2023/10/23 06:17:01;;;;;;;8.67;7.70;;;8.60;99.90;;;;;;5036450;28;20455;-61
2023/10/23 06:19:31;;;;;;;10.50;8.00;;;8.60;99.90;;;;;;5035797;28;20554;-60
2023/10/23 06:21:59;;;;;;;12.70;8.97;;;8.60;99.90;;;;;;5036759;28;20470;-61
2023/10/23 06:24:27;;;;;;;13.23;8.60;;;8.50;99.90;;;;;;5037012;28;20463;-60
2023/10/23 06:26:54;;;;;;;10.10;9.10;;;8.50;99.90;;;;;;5037143;28;20459;-60
2023/10/23 06:29:21;;;;;;;10.83;8.77;;;8.50;99.90;;;;;;5037053;28;20459;-60
2023/10/23 06:31:48;;;;;;;10.70;8.83;;;8.60;99.90;;;;;;5036837;28;20902;-60
2023/10/23 06:34:15;;;;;;;12.40;9.73;;;8.50;99.90;;;;;;5036224;28;20459;-60
2023/10/23 06:36:43;;;;;;;10.30;8.60;;;8.50;99.90;;;;;;5051221;28;20480;-62
2023/10/23 06:39:12;;;;;;;20.67;8.90;;;8.60;99.90;;;;;;5035590;28;20440;-60
2023/10/23 06:41:39;;;;;;;10.67;8.20;;;8.50;99.90;;;;;;5035446;28;20490;-61
2023/10/23 06:44:07;;;;;;;13.20;8.47;;;8.60;99.90;;;;;;5035999;28;20466;-61
2023/10/23 06:46:34;;;;;;;11.80;9.40;;;8.60;99.90;;;;;;5042333;27;20451;-61
2023/10/23 06:49:01;;;;;;;11.23;8.90;;;8.60;99.90;;;;;;5035172;28;20491;-60
2023/10/23 06:51:28;;;;;;;12.57;9.80;;;8.70;99.90;;;;;;5035281;28;20468;-60
2023/10/23 06:53:56;;;;;;;11.63;9.00;;;8.70;99.90;;;;;;5034864;28;20914;-60
2023/10/23 06:56:24;;;;;;;12.70;10.93;;;8.80;99.90;;;;;;5035131;28;20563;-60
2023/10/23 06:58:52;;;;;;;9.80;8.80;;;8.80;99.90;;;;;;5033876;28;20463;-60
2023/10/23 07:01:19;;;;;;;9.30;8.10;;;8.90;99.90;;;;;;5033677;28;20831;-60
2023/10/23 07:03:46;;;;;;;10.07;9.03;;;8.90;99.90;;;;;;5033634;28;20514;-61
2023/10/23 07:06:13;;;;;;;10.57;8.70;;;9.00;99.90;;;;;;5032231;28;20841;-60
2023/10/23 07:08:40;;;;;;;10.50;9.00;;;9.10;99.90;;;;;;5032941;28;20582;-61
2023/10/23 07:11:17;;;;;;;11.70;9.10;;;9.10;99.90;;;;;;5033726;28;20491;-60
2023/10/23 07:13:45;;;;;;;10.70;9.60;;;9.20;99.90;;;;;;5033713;28;20467;-60
2023/10/23 07:16:12;;;;;;;11.00;8.70;;;9.30;99.90;;;;;;5033748;28;20489;-60
2023/10/23 07:18:40;;;;;;;13.10;10.30;;;9.30;99.90;;;;;;5034153;28;20509;-60
2023/10/23 07:21:07;;;;;;;11.00;9.30;;;9.40;99.90;;;;;;5035562;28;20781;-60
2023/10/23 07:23:36;;;;;;;13.40;8.90;;;9.50;99.90;;;;;;5036116;28;20456;-60
2023/10/23 07:26:07;;;;;;;10.90;9.43;;;9.70;99.90;;;;;;5034904;28;20460;-61
2023/10/23 07:28:38;;;;;;;11.93;10.63;;;9.70;99.90;;;;;;5035685;28;20471;-61
2023/10/23 07:31:05;;;;;;;12.13;9.70;;;9.90;99.90;;;;;;5033892;28;20585;-60
2023/10/23 07:33:33;;;;;;;9.40;8.00;;;10.00;99.90;;;;;;5034505;28;20469;-59
2023/10/23 07:36:02;;;;;;;14.70;9.73;;;10.00;99.90;;;;;;5034184;28;20844;-60
2023/10/23 07:38:29;;;;;;;12.17;9.77;;;10.20;99.90;;;;;;5034100;28;20464;-60
2023/10/23 07:40:57;;;;;;;10.60;9.40;;;10.30;99.90;;;;;;5034369;28;20499;-61
2023/10/23 07:43:25;;;;;;;13.83;8.73;;;10.40;99.90;;;;;;5034081;28;20459;-60
2023/10/23 07:45:54;;;;;;;10.50;8.57;;;10.60;99.90;;;;;;5035627;28;20463;-60
2023/10/23 07:48:23;;;;;;;10.10;7.87;;;10.70;99.90;;;;;;5035253;28;20470;-60
2023/10/23 07:50:50;;;;;;;10.07;7.40;;;10.90;99.90;;;;;;5035808;28;20570;-60
2023/10/23 07:53:17;;;;;;;10.60;7.83;;;11.20;99.90;;;;;;5035673;28;20465;-60
2023/10/23 07:55:45;;;;;;;9.80;8.13;;;11.30;99.90;;;;;;5034934;28;20582;-59
2023/10/23 07:58:12;;;;;;;8.53;7.50;;;11.70;99.90;;;;;;5034340;28;20544;-60
2023/10/23 08:00:39;;;;;;;9.33;7.90;;;11.90;99.90;;;;;;5034228;28;20542;-60
2023/10/23 08:03:08;;;;;;;11.00;7.50;;;12.00;99.90;;;;;;5034776;28;20491;-61
2023/10/23 08:05:35;;;;;;;8.60;7.00;;;11.90;99.90;;;;;;5034167;28;20467;-60
2023/10/23 08:08:03;;;;;;;9.57;7.60;;;12.00;99.90;;;;;;5034632;28;20532;-60
2023/10/23 08:10:33;;;;;;;8.10;6.43;;;12.30;99.90;;;;;;5034477;28;20581;-60
2023/10/23 08:13:01;;;;;;;8.60;6.73;;;12.30;99.90;;;;;;5034948;28;20459;-60
2023/10/23 08:15:29;;;;;;;8.20;7.13;;;12.30;99.90;;;;;;5033489;28;20459;-61
2023/10/23 08:17:56;;;;;;;8.03;7.23;;;11.90;99.90;;;;;;5033382;28;20452;-61
2023/10/23 08:20:24;;;;;;;8.90;7.90;;;12.00;99.90;;;;;;5033585;28;20852;-61
2023/10/23 08:22:52;;;;;;;9.43;7.53;;;12.20;99.90;;;;;;5033295;28;20455;-61
2023/10/23 08:25:20;;;;;;;11.20;8.57;;;12.30;99.90;;;;;;5033728;28;20458;-61
2023/10/23 08:27:48;;;;;;;13.03;9.40;;;12.70;99.90;;;;;;5033315;28;20916;-62
2023/10/23 08:30:15;;;;;;;14.60;9.00;;;12.80;99.90;;;;;;5033947;28;20531;-62
2023/10/23 08:32:42;;;;;;;10.90;8.63;;;13.00;99.90;;;;;;5034822;28;20486;-62
2023/10/23 08:35:10;;;;;;;11.43;9.30;;;12.90;99.90;;;;;;5034986;28;20506;-62
2023/10/23 08:37:38;;;;;;;10.53;8.93;;;12.90;99.90;;;;;;5035100;28;20459;-62
2023/10/23 08:40:07;;;;;;;10.00;8.70;;;12.90;99.90;;;;;;5034429;28;20505;-62
2023/10/23 08:42:35;;;;;;;14.03;9.70;;;12.90;99.90;;;;;;5034648;28;20895;-62
2023/10/23 08:45:02;;;;;;;12.30;9.80;;;12.70;99.90;;;;;;5035185;28;20499;-63
2023/10/23 08:47:30;;;;;;;10.90;8.67;;;12.90;99.90;;;;;;5034748;28;20546;-62
2023/10/23 08:49:59;;;;;;;12.50;9.40;;;13.10;99.90;;;;;;5034016;28;20471;-62
2023/10/23 08:52:30;;;;;;;7.97;7.17;;;13.20;99.90;;;;;;5034641;28;20495;-62
2023/10/23 08:54:59;;;;;;;13.43;9.03;;;13.20;99.90;;;;;;5034973;28;20495;-63
2023/10/23 08:57:26;;;;;;;8.97;8.07;;;13.50;99.90;;;;;;5034483;28;20469;-63
2023/10/23 08:59:54;;;;;;;11.37;9.20;;;13.60;99.90;;;;;;5034743;28;20740;-62
2023/10/23 09:02:22;;;;;;;8.57;7.40;;;13.80;99.90;;;;;;5026505;28;20468;-63
2023/10/23 09:04:49;;;;;;;9.50;7.83;;;13.80;99.90;;;;;;5028147;28;20459;-63
2023/10/23 09:07:16;;;;;;;11.47;7.73;;;13.70;99.90;;;;;;5034573;28;20494;-62
2023/10/23 09:09:43;;;;;;;9.23;7.30;;;13.70;99.90;;;;;;5034563;28;20456;-63
2023/10/23 09:12:30;;;;;;;9.33;7.17;;;13.70;99.90;;;;;;5033490;28;20483;-63
2023/10/23 09:14:58;;;;;;;8.07;6.03;;;13.90;99.90;;;;;;5034529;28;20863;-63
2023/10/23 09:17:26;;;;;;;6.90;5.73;;;14.10;99.90;;;;;;5034356;28;20456;-63
2023/10/23 09:19:53;;;;;;;10.13;6.03;;;14.20;99.90;;;;;;5033165;28;20495;-63
2023/10/23 09:22:21;;;;;;;7.40;5.57;;;14.40;99.90;;;;;;5033906;28;20481;-63
2023/10/23 09:24:48;;;;;;;10.03;5.47;;;14.50;1.00;;;;;;5033934;28;20459;-63
2023/10/23 09:27:19;;;;;;;7.20;5.37;;;14.80;99.90;;;;;;5032779;28;20995;-63
2023/10/23 09:29:46;;;;;;;6.83;5.23;;;15.00;99.90;;;;;;5031107;28;20470;-63
2023/10/23 09:32:15;;;;;;;5.90;4.37;;;15.00;96.10;;;;;;5033299;28;20777;-64
2023/10/23 09:34:44;;;;;;;6.40;5.00;;;15.00;99.90;;;;;;5033629;28;20546;-63
2023/10/23 09:37:12;;;;;;;7.00;4.37;;;15.10;99.90;;;;;;5033728;28;20463;-63
2023/10/23 09:39:41;;;;;;;6.20;4.80;;;15.30;8.50;;;;;;5033664;28;20541;-63
2023/10/23 09:42:09;;;;;;;5.40;4.47;;;15.40;1.00;;;;;;5032942;28;20466;-63
2023/10/23 09:44:39;;;;;;;5.80;4.47;;;15.40;1.00;;;;;;5032135;28;20455;-63
2023/10/23 09:47:08;;;;;;;5.73;4.30;;;15.70;1.00;;;;;;5031809;28;20831;-63
2023/10/23 09:49:36;;;;;;;5.47;4.43;;;15.70;1.00;;;;;;5031065;28;20455;-63
2023/10/23 09:52:09;;;;;;;4.33;3.90;;;15.90;1.00;;;;;;5031339;28;20579;-63
2023/10/23 09:54:39;;;;;;;6.27;4.10;;;16.00;1.00;;;;;;5031979;28;20520;-63
2023/10/23 09:57:08;;;;;;;6.37;4.40;;;16.00;1.00;;;;;;5032178;28;20459;-62
2023/10/23 09:59:44;;;;;;;4.90;4.00;;;16.00;1.00;;;;;;5031813;28;20976;-62
2023/10/23 10:02:12;;;;;;;4.40;3.80;;;16.00;1.00;;;;;;5030830;28;20459;-63
2023/10/23 10:04:48;;;;;;;5.00;3.80;;;16.00;1.00;;;;;;5031932;28;20466;-62
2023/10/23 10:07:22;;;;;;;5.10;3.70;;;16.10;1.00;;;;;;5032195;28;20514;-63
2023/10/23 10:09:51;;;;;;;4.50;3.60;;;16.10;1.00;;;;;;5033000;28;20459;-62
2023/10/23 10:12:19;;;;;;;6.57;4.00;;;16.10;99.90;;;;;;5032752;28;20501;-62
2023/10/23 10:14:49;;;;;;;5.33;4.10;;;16.10;99.90;;;;;;5033752;28;20466;-61
2023/10/23 10:17:19;;;;;;;4.20;3.23;;;16.30;99.90;;;;;;5033993;28;20459;-62
2023/10/23 10:19:47;;;;;;;6.20;3.70;;;16.20;99.90;;;;;;5032439;28;20540;-61
2023/10/23 10:22:23;;;;;;;4.83;3.33;;;16.40;99.90;;;;;;5033496;28;20462;-62
2023/10/23 10:24:52;;;;;;;5.47;3.53;;;16.50;99.90;;;;;;5033458;28;20557;-62
2023/10/23 10:27:20;;;;;;;4.40;3.33;;;16.50;99.90;;;;;;5032053;28;20497;-62
2023/10/23 10:29:48;;;;;;;3.07;2.77;;;16.50;99.90;;;;;;5031546;28;20459;-62
2023/10/23 10:32:16;;;;;;;5.43;3.20;;;16.60;99.90;;;;;;5032295;28;20498;-61
2023/10/23 10:34:53;;;;;;;6.23;2.83;;;16.50;99.90;;;;;;5032430;28;20546;-59
2023/10/23 10:37:24;;;;;;;5.10;2.97;;;16.70;99.90;;;;;;5032362;28;20459;-59
2023/10/23 10:40:05;;;;;;;3.80;2.57;;;16.80;99.90;;;;;;5033629;28;20937;-59
2023/10/23 10:42:36;;;;;;;4.30;2.77;;;17.10;99.90;;;;;;5036266;28;20462;-60
2023/10/23 10:45:19;;;;;;;4.13;2.53;;;17.30;99.90;;;;;;5036765;28;20545;-59
2023/10/23 10:47:49;;;;;;;6.10;3.00;;;17.40;99.90;;;;;;5017945;28;20645;-59
2023/10/23 10:50:38;;;;;;;4.27;2.63;;;17.40;99.90;;;;;;5036438;28;20463;-59
2023/10/23 10:53:07;;;;;;;4.07;3.17;;;17.40;99.90;;;;;;5036691;28;20805;-59
2023/10/23 10:55:36;;;;;;;4.70;3.17;;;17.40;99.90;;;;;;5036723;28;20480;-59
2023/10/23 10:58:05;;;;;;;4.10;3.20;;;17.40;99.90;;;;;;5036560;28;20541;-59
2023/10/23 11:00:35;;;;;;;3.33;2.10;;;17.50;99.90;;;;;;5036407;28;20759;-60
2023/10/23 11:03:02;;;;;;;3.60;2.80;;;17.60;99.90;;;;;;5035587;28;20463;-59
2023/10/23 11:05:31;;;;;;;3.57;2.53;;;17.50;99.90;;;;;;5035808;28;20463;-59
2023/10/23 11:07:59;;;;;;;3.53;2.17;;;17.50;99.90;;;;;;5016402;28;20757;-59
2023/10/23 11:10:26;;;;;;;5.57;2.67;;;17.50;94.30;;;;;;5034264;28;20429;-60
2023/10/23 11:12:54;;;;;;;3.87;2.20;;;17.60;96.80;;;;;;5035175;28;20509;-59
2023/10/23 11:15:21;;;;;;;3.10;2.13;;;17.60;93.40;;;;;;5035099;28;20464;-58
2023/10/23 11:17:51;;;;;;;2.17;1.77;;;17.60;48.10;;;;;;5035299;28;20460;-59
2023/10/23 11:20:20;;;;;;;3.80;2.40;;;17.70;26.70;;;;;;5035464;28;20805;-59
2023/10/23 11:22:48;;;;;;;2.70;2.30;;;17.70;19.40;;;;;;5035887;28;20456;-59
2023/10/23 11:25:17;;;;;;;3.47;1.97;;;17.60;1.00;;;;;;5106770;27;20467;-60
2023/10/23 11:27:50;;;;;;;2.93;2.43;;;17.30;1.00;;;;;;5059656;27;20854;-61
2023/10/23 11:30:17;;;;;;;2.93;2.40;;;17.30;1.00;;;;;;5034331;28;20827;-60
2023/10/23 11:32:45;;;;;;;3.03;2.30;;;17.20;1.00;;;;;;5034018;28;20504;-61
2023/10/23 11:35:14;;;;;;;3.40;2.17;;;17.10;1.00;;;;;;5035149;28;20890;-61
2023/10/23 11:37:42;;;;;;;3.97;2.47;;;17.20;1.00;;;;;;5035070;28;20903;-61
2023/10/23 11:40:11;;;;;;;6.57;2.93;;;17.20;1.00;;;;;;5035065;28;20835;-61
2023/10/23 11:42:47;;;;;;;3.90;2.40;;;17.10;1.00;;;;;;5035819;28;20456;-60
2023/10/23 11:45:17;;;;;;;2.90;2.10;;;16.90;1.00;;;;;;5035081;28;20463;-61
2023/10/23 11:47:44;;;;;;;3.90;2.20;;;16.80;1.00;;;;;;5059936;27;20554;-61
2023/10/23 11:50:14;;;;;;;3.53;2.47;;;16.80;1.00;;;;;;5033939;28;20520;-61
2023/10/23 11:52:42;;;;;;;3.10;2.10;;;16.60;1.00;;;;;;5037050;27;20495;-61
2023/10/23 11:55:14;;;;;;;4.57;2.13;;;16.60;1.00;;;;;;5036933;27;20465;-61
2023/10/23 11:57:43;;;;;;;3.37;2.30;;;16.50;1.00;;;;;;5052922;27;20455;-60
2023/10/23 12:00:13;;;;;;;4.30;2.37;;;16.40;1.00;;;;;;5033141;28;20452;-61
2023/10/23 12:02:42;;;;;;;5.43;3.17;;;16.40;1.00;;;;;;5037275;27;20459;-61
2023/10/23 12:05:12;;;;;;;2.90;2.20;;;16.30;1.00;;;;;;5031399;28;20466;-60
2023/10/23 12:07:42;;;;;;;4.77;3.17;;;16.30;1.00;;;;;;5032770;28;20487;-60
2023/10/23 12:10:11;;;;;;;5.30;2.27;;;16.20;1.00;;;;;;5033079;28;20483;-60
2023/10/23 12:12:40;;;;;;;3.73;2.27;;;16.10;1.00;;;;;;5033411;28;20534;-59
2023/10/23 12:15:09;;;;;;;3.00;2.23;;;16.00;1.00;;;;;;5034570;28;20975;-60
2023/10/23 12:17:37;;;;;;;5.47;2.50;;;15.90;1.00;;;;;;5034614;28;20885;-60
2023/10/23 12:20:07;;;;;;;4.40;2.80;;;16.00;1.00;;;;;;5033937;28;20466;-59
2023/10/23 12:22:36;;;;;;;4.67;2.83;;;15.90;1.00;;;;;;5033543;28;20466;-60
2023/10/23 12:25:06;;;;;;;4.80;2.47;;;15.80;1.00;;;;;;5033768;28;20494;-59
2023/10/23 12:27:34;;;;;;;2.87;2.20;;;15.70;1.00;;;;;;5033666;28;20463;-59
2023/10/23 12:30:04;;;;;;;3.60;2.17;;;15.70;1.00;;;;;;5033445;28;20953;-59
2023/10/23 12:32:31;;;;;;;4.80;2.63;;;15.70;1.00;;;;;;5031582;28;20951;-59
2023/10/23 12:34:59;;;;;;;3.73;2.03;;;15.60;1.00;;;;;;5031167;28;20943;-60
2023/10/23 12:37:27;;;;;;;2.27;1.80;;;15.70;1.00;;;;;;5031179;28;20438;-60
2023/10/23 12:39:56;;;;;;;6.20;2.80;;;15.80;1.00;;;;;;5032122;28;20855;-59
2023/10/23 12:42:26;;;;;;;5.97;3.37;;;15.80;1.00;;;;;;5032400;28;20771;-60
2023/10/23 12:44:54;;;;;;;3.53;2.33;;;15.90;1.00;;;;;;5032831;28;20742;-60
2023/10/23 12:47:22;;;;;;;7.03;2.00;;;15.90;1.00;;;;;;5032593;28;20892;-60
2023/10/23 12:49:50;;;;;;;3.50;2.60;;;15.80;1.00;;;;;;5032749;28;20459;-59
2023/10/23 12:52:17;;;;;;;8.10;2.13;;;15.70;1.00;;;;;;5032707;28;20579;-59